Croghan, New York
Current Conditions -  °F | °C
As of 10:58 AM on Thursday 27 Nov 2014 (Local Time) from KGTB Reporting Station
Overcast Overcast  
Wind Chill: 21°   Ceiling: 2500
Heat Index: 26°   Visibility: 10mi
Dew Point: 22°   Wind: 5mph
Humidity: 84%   Direction: 10°N
Pressure: 30.02"   Gusts: NA
Location:  43.9°N, 75.39°W
Report Text: KGTB 271558Z AUTO 01004KT 10SM OVC025 M03/M06 A3002 RMK AO2 SLP176 T10321056
Loading
Personal Weather Stations






























Interactive Weather Map New forecast layout! Learn more

10-Day Weather Forecast

Advertisements
Track Severe Weather on mobile